createdAt,value
2023-07-01T00:00:10.426Z,99700.22
2023-07-01T00:01:13.465Z,99705.13
2023-07-01T00:02:16.463Z,99704.31
2023-07-01T00:03:19.568Z,99706.66
2023-07-01T00:04:22.703Z,99704.19
2023-07-01T00:05:25.845Z,99700.94
2023-07-01T00:06:29.008Z,99704.44
2023-07-01T00:07:31.995Z,99703.16
2023-07-01T00:08:35.198Z,99707.59
2023-07-01T00:09:38.184Z,99704.91
2023-07-01T00:10:41.204Z,99704.81
2023-07-01T00:11:44.233Z,99703.41
2023-07-01T00:12:47.237Z,99703.75
2023-07-01T00:13:50.247Z,99708.53
2023-07-01T00:14:53.293Z,99708.06
2023-07-01T00:15:59.294Z,99703.50
2023-07-01T00:17:03.612Z,99702.97
2023-07-01T00:18:06.633Z,99702.38
2023-07-01T00:19:09.647Z,99701.34
2023-07-01T00:20:13.149Z,99692.81
2023-07-01T00:21:16.148Z,99705.50
2023-07-01T00:22:19.127Z,99693.16
2023-07-01T00:23:22.172Z,99696.53
2023-07-01T00:24:25.184Z,99701.91
2023-07-01T00:25:28.169Z,99694.91
2023-07-01T00:26:31.172Z,99697.50
2023-07-01T00:27:34.155Z,99692.59
2023-07-01T00:28:37.136Z,99694.94
2023-07-01T00:29:40.124Z,99696.34
2023-07-01T00:30:43.125Z,99692.59
2023-07-01T00:31:46.331Z,99692.25
2023-07-01T00:32:49.386Z,99699.25
2023-07-01T00:33:52.417Z,99692.75
2023-07-01T00:34:55.406Z,99691.56
2023-07-01T00:35:58.390Z,99698.78
2023-07-01T00:37:01.372Z,99693.91
2023-07-01T00:38:04.747Z,99698.47
2023-07-01T00:39:07.724Z,99688.91
2023-07-01T00:40:11.042Z,99685.16
2023-07-01T00:41:14.024Z,99686.22
2023-07-01T00:42:17.157Z,99688.91
2023-07-01T00:43:20.129Z,99688.56
2023-07-01T00:44:23.516Z,99689.56
2023-07-01T00:45:26.502Z,99686.09
2023-07-01T00:46:29.548Z,99689.25
2023-07-01T00:47:32.664Z,99684.56
2023-07-01T00:48:35.783Z,99685.88
2023-07-01T00:49:40.823Z,99683.53
2023-07-01T00:50:43.915Z,99687.25
2023-07-01T00:51:47.109Z,99693.09
2023-07-01T00:52:51.287Z,99682.38
2023-07-01T00:53:54.877Z,99690.66
2023-07-01T00:54:58.034Z,99689.47
2023-07-01T00:56:01.030Z,99685.06
2023-07-01T00:57:05.485Z,99679.22
2023-07-01T00:58:08.553Z,99681.09
2023-07-01T00:59:11.537Z,99681.78
2023-07-01T01:00:15.937Z,99678.56
2023-07-01T01:01:35.444Z,99678.31
2023-07-01T01:02:52.915Z,99672.81
2023-07-01T01:04:20.554Z,99671.19
2023-07-01T01:05:39.918Z,99678.19
2023-07-01T01:06:54.534Z,99676.56
2023-07-01T01:08:10.359Z,99665.50
2023-07-01T01:09:17.540Z,99670.50
2023-07-01T01:10:24.088Z,99666.16
2023-07-01T01:11:33.245Z,99665.25
2023-07-01T01:12:40.249Z,99669.34
2023-07-01T01:13:47.509Z,99666.06
2023-07-01T01:14:52.672Z,99668.75
2023-07-01T01:15:59.389Z,99664.09
2023-07-01T01:17:07.090Z,99659.31
2023-07-01T01:18:18.112Z,99663.47
2023-07-01T01:19:39.519Z,99663.13
2023-07-01T01:20:42.951Z,99661.28
2023-07-01T01:21:45.965Z,99661.16
2023-07-01T01:23:08.951Z,99665.44
2023-07-01T01:24:15.224Z,99654.28
2023-07-01T01:25:28.911Z,99660.69
2023-07-01T01:26:41.391Z,99661.16
2023-07-01T01:27:44.744Z,99655.19
2023-07-01T01:28:48.157Z,99660.56
2023-07-01T01:29:51.978Z,99652.53
2023-07-01T01:30:54.984Z,99652.53
2023-07-01T01:31:58.206Z,99655.19
2023-07-01T01:33:02.567Z,99655.06
2023-07-01T01:34:06.032Z,99651.59
2023-07-01T01:35:09.185Z,99649.97
2023-07-01T01:36:32.510Z,99653.00
2023-07-01T01:37:47.185Z,99648.78
2023-07-01T01:38:51.485Z,99650.09
2023-07-01T01:40:11.189Z,99653.81
2023-07-01T01:41:31.134Z,99659.06
2023-07-01T01:42:37.003Z,99652.06
2023-07-01T01:44:04.520Z,99649.03
2023-07-01T01:45:09.155Z,99651.81
2023-07-01T01:46:14.085Z,99655.66
2023-07-01T01:47:23.545Z,99655.41
2023-07-01T01:48:26.633Z,99651.72
2023-07-01T01:49:32.882Z,99656.69
2023-07-01T01:50:38.586Z,99658.22
2023-07-01T01:51:42.895Z,99662.38
2023-07-01T01:52:46.803Z,99657.63
2023-07-01T01:53:53.387Z,99661.03
2023-07-01T01:54:58.946Z,99663.44
2023-07-01T01:56:03.152Z,99661.47
2023-07-01T01:57:06.944Z,99662.50
2023-07-01T01:58:10.934Z,99660.88
2023-07-01T01:59:14.163Z,99659.34
2023-07-01T02:00:17.502Z,99656.94
2023-07-01T02:01:20.649Z,99653.66
2023-07-01T02:02:23.723Z,99654.47
2023-07-01T02:03:26.883Z,99655.53
2023-07-01T02:04:30.033Z,99653.66
2023-07-01T02:05:33.201Z,99647.50
2023-07-01T02:06:36.182Z,99655.16
2023-07-01T02:07:40.325Z,99652.00
2023-07-01T02:08:43.348Z,99646.31
2023-07-01T02:09:46.350Z,99659.09
2023-07-01T02:10:49.630Z,99654.56
2023-07-01T02:11:52.816Z,99660.38
2023-07-01T02:12:55.790Z,99650.97
2023-07-01T02:13:58.759Z,99657.59
2023-07-01T02:15:01.760Z,99654.06
2023-07-01T02:16:05.052Z,99658.75
2023-07-01T02:17:08.252Z,99663.28
2023-07-01T02:18:11.275Z,99658.75
2023-07-01T02:19:14.353Z,99657.94
2023-07-01T02:20:17.569Z,99655.78
2023-07-01T02:21:20.522Z,99660.59
2023-07-01T02:22:23.543Z,99658.03
2023-07-01T02:23:26.535Z,99659.88
2023-07-01T02:24:29.546Z,99658.47
2023-07-01T02:25:32.631Z,99664.88
2023-07-01T02:26:35.601Z,99661.16
2023-07-01T02:27:38.618Z,99662.81
2023-07-01T02:28:41.606Z,99660.72
2023-07-01T02:29:45.748Z,99656.63
2023-07-01T02:30:49.106Z,99655.00
2023-07-01T02:31:52.282Z,99661.03
2023-07-01T02:32:55.335Z,99657.91
2023-07-01T02:34:02.382Z,99655.69
2023-07-01T02:35:06.118Z,99654.41
2023-07-01T02:36:09.110Z,99657.78
2023-07-01T02:37:12.088Z,99657.97
2023-07-01T02:38:15.608Z,99656.97
2023-07-01T02:39:18.584Z,99656.59
2023-07-01T02:40:21.587Z,99656.59
2023-07-01T02:41:24.603Z,99653.09
2023-07-01T02:42:27.647Z,99659.13
2023-07-01T02:43:30.628Z,99658.53
2023-07-01T02:44:33.618Z,99654.97
2023-07-01T02:45:36.600Z,99657.00
2023-07-01T02:46:39.851Z,99653.31
2023-07-01T02:47:43.040Z,99657.19
2023-07-01T02:48:46.060Z,99654.03
2023-07-01T02:49:50.223Z,99652.41
2023-07-01T02:50:53.218Z,99657.00
2023-07-01T02:51:56.198Z,99659.84
2023-07-01T02:52:59.168Z,99653.69
2023-07-01T02:54:02.142Z,99660.50
2023-07-01T02:55:05.822Z,99662.81
2023-07-01T02:56:08.808Z,99664.91
2023-07-01T02:57:11.987Z,99664.91
2023-07-01T02:58:15.074Z,99663.13
2023-07-01T02:59:18.063Z,99663.00
2023-07-01T03:00:31.243Z,99665.09
2023-07-01T03:01:34.303Z,99667.88
2023-07-01T03:02:37.381Z,99667.47
2023-07-01T03:03:40.903Z,99665.47
2023-07-01T03:04:43.976Z,99661.38
2023-07-01T03:05:47.010Z,99666.72
2023-07-01T03:06:50.025Z,99670.00
2023-07-01T03:07:53.299Z,99664.41
2023-07-01T03:08:56.302Z,99661.72
2023-07-01T03:09:59.290Z,99664.25
2023-07-01T03:11:02.295Z,99667.19
2023-07-01T03:12:05.880Z,99656.94
2023-07-01T03:13:08.886Z,99662.19
2023-07-01T03:14:13.659Z,99657.19
2023-07-01T03:15:16.679Z,99659.28
2023-07-01T03:16:20.915Z,99655.41
2023-07-01T03:17:25.935Z,99663.91
2023-07-01T03:18:29.118Z,99659.59
2023-07-01T03:19:32.107Z,99659.38
2023-07-01T03:20:35.116Z,99655.28
2023-07-01T03:21:38.667Z,99667.78
2023-07-01T03:22:42.235Z,99664.97
2023-07-01T03:23:45.254Z,99665.16
2023-07-01T03:24:48.221Z,99662.72
2023-07-01T03:25:51.194Z,99674.16
2023-07-01T03:26:54.168Z,99662.44
2023-07-01T03:27:57.173Z,99666.13
2023-07-01T03:29:00.166Z,99659.75
2023-07-01T03:30:03.149Z,99663.59
2023-07-01T03:31:06.216Z,99661.38
2023-07-01T03:32:09.930Z,99668.34
2023-07-01T03:33:13.413Z,99669.53
2023-07-01T03:34:17.075Z,99668.28
2023-07-01T03:35:20.060Z,99668.63
2023-07-01T03:36:23.060Z,99667.81
2023-07-01T03:37:26.043Z,99666.41
2023-07-01T03:38:29.059Z,99666.63
2023-07-01T03:39:32.032Z,99663.28
2023-07-01T03:40:35.021Z,99662.09
2023-07-01T03:41:39.738Z,99661.66
2023-07-01T03:42:44.232Z,99667.81
2023-07-01T03:43:47.229Z,99665.94
2023-07-01T03:44:50.205Z,99669.81
2023-07-01T03:45:53.220Z,99665.22
2023-07-01T03:46:56.213Z,99661.94
2023-07-01T03:47:59.265Z,99663.00
2023-07-01T03:49:02.264Z,99661.66
2023-07-01T03:50:09.128Z,99656.75
2023-07-01T03:51:12.190Z,99665.09
2023-07-01T03:52:15.276Z,99667.88
2023-07-01T03:53:18.581Z,99662.91
2023-07-01T03:54:22.224Z,99661.78
2023-07-01T03:55:26.593Z,99654.56
2023-07-01T03:56:29.635Z,99653.16
2023-07-01T03:57:33.840Z,99658.66
2023-07-01T03:58:36.827Z,99661.03
2023-07-01T03:59:39.891Z,99664.75
2023-07-01T04:00:42.887Z,99664.75
2023-07-01T04:01:45.914Z,99656.41
2023-07-01T04:02:52.223Z,99664.22
2023-07-01T04:03:57.238Z,99660.13
2023-07-01T04:05:11.050Z,99655.00
2023-07-01T04:06:14.031Z,99657.81
2023-07-01T04:07:22.786Z,99649.56
2023-07-01T04:08:25.753Z,99648.66
2023-07-01T04:09:28.742Z,99647.38
2023-07-01T04:10:31.841Z,99653.53
2023-07-01T04:11:34.899Z,99649.59
2023-07-01T04:12:39.507Z,99653.44
2023-07-01T04:13:42.497Z,99638.53
2023-07-01T04:14:45.473Z,99641.81
2023-07-01T04:15:48.466Z,99637.84
2023-07-01T04:16:52.284Z,99642.75
2023-07-01T04:17:55.444Z,99638.78
2023-07-01T04:18:58.488Z,99636.91
2023-07-01T04:20:01.572Z,99627.59
2023-07-01T04:21:04.594Z,99641.94
2023-07-01T04:22:07.591Z,99641.81
2023-07-01T04:23:10.633Z,99644.59
2023-07-01T04:24:13.617Z,99642.25
2023-07-01T04:25:16.621Z,99639.38
2023-07-01T04:26:19.888Z,99639.63
2023-07-01T04:27:22.879Z,99641.84
2023-07-01T04:28:25.886Z,99641.38
2023-07-01T04:29:28.871Z,99639.94
2023-07-01T04:30:31.884Z,99638.06
2023-07-01T04:31:34.933Z,99629.78
2023-07-01T04:32:38.263Z,99633.19
2023-07-01T04:33:41.271Z,99637.34
2023-07-01T04:34:45.558Z,99639.94
2023-07-01T04:35:48.566Z,99633.94
2023-07-01T04:36:51.559Z,99635.44
2023-07-01T04:37:54.552Z,99638.56
2023-07-01T04:38:57.543Z,99636.94
2023-07-01T04:40:01.153Z,99638.25
2023-07-01T04:41:04.615Z,99629.09
2023-07-01T04:42:07.625Z,99634.06
2023-07-01T04:43:11.188Z,99633.25
2023-07-01T04:44:14.160Z,99630.19
2023-07-01T04:45:19.701Z,99627.69
2023-07-01T04:46:22.766Z,99630.00
2023-07-01T04:47:27.595Z,99628.22
2023-07-01T04:48:32.000Z,99630.19
2023-07-01T04:49:35.150Z,99625.91
2023-07-01T04:50:38.149Z,99632.72
2023-07-01T04:51:41.126Z,99631.44
2023-07-01T04:52:45.224Z,99631.53
2023-07-01T04:53:48.337Z,99625.69
2023-07-01T04:54:52.700Z,99630.09
2023-07-01T04:55:55.706Z,99637.72
2023-07-01T04:56:58.701Z,99634.88
2023-07-01T04:58:01.693Z,99634.19
2023-07-01T04:59:04.773Z,99636.94
2023-07-01T05:00:11.370Z,99640.50
2023-07-01T05:01:14.458Z,99631.06
2023-07-01T05:02:17.447Z,99630.03
2023-07-01T05:03:20.477Z,99637.31
2023-07-01T05:04:23.603Z,99629.50
2023-07-01T05:05:27.359Z,99631.41
2023-07-01T05:06:30.383Z,99634.66
2023-07-01T05:07:33.689Z,99632.47
2023-07-01T05:08:36.701Z,99632.75
2023-07-01T05:09:39.740Z,99637.06
2023-07-01T05:10:42.737Z,99639.50
2023-07-01T05:11:45.956Z,99639.19
2023-07-01T05:12:48.926Z,99638.94
2023-07-01T05:13:51.906Z,99633.25
2023-07-01T05:14:56.238Z,99633.25
2023-07-01T05:15:59.247Z,99634.34
2023-07-01T05:17:02.225Z,99638.66
2023-07-01T05:18:05.275Z,99643.56
2023-07-01T05:19:08.334Z,99637.03
2023-07-01T05:20:12.250Z,99638.63
2023-07-01T05:21:15.298Z,99638.31
2023-07-01T05:22:18.284Z,99638.53
2023-07-01T05:23:21.287Z,99643.38
2023-07-01T05:24:24.327Z,99633.09
2023-07-01T05:25:27.327Z,99630.41
2023-07-01T05:26:30.295Z,99633.63
2023-07-01T05:27:33.287Z,99636.03
2023-07-01T05:28:36.287Z,99645.06
2023-07-01T05:29:39.298Z,99638.50
2023-07-01T05:30:42.308Z,99636.91
2023-07-01T05:31:45.312Z,99643.91
2023-07-01T05:32:48.359Z,99642.81
2023-07-01T05:33:51.373Z,99643.06
2023-07-01T05:34:54.362Z,99644.44
2023-07-01T05:35:57.362Z,99656.56
2023-07-01T05:37:00.450Z,99654.56
2023-07-01T05:38:13.712Z,99645.59
2023-07-01T05:39:17.461Z,99647.47
2023-07-01T05:40:20.466Z,99650.38
2023-07-01T05:41:23.445Z,99653.31
2023-07-01T05:42:26.443Z,99651.06
2023-07-01T05:43:29.444Z,99652.91
2023-07-01T05:44:32.442Z,99658.06
2023-07-01T05:45:35.438Z,99662.03
2023-07-01T05:46:39.806Z,99659.41
2023-07-01T05:47:42.930Z,99651.75
2023-07-01T05:48:45.936Z,99647.47
2023-07-01T05:49:48.923Z,99652.03
2023-07-01T05:50:51.904Z,99647.25
2023-07-01T05:51:54.910Z,99650.56
2023-07-01T05:52:57.908Z,99642.69
2023-07-01T05:54:00.906Z,99651.28
2023-07-01T05:55:04.128Z,99643.38
2023-07-01T05:56:07.101Z,99645.00
2023-07-01T05:57:10.080Z,99637.72
2023-07-01T05:58:13.082Z,99640.56
2023-07-01T05:59:16.061Z,99637.16
2023-07-01T06:00:19.151Z,99644.03
2023-07-01T06:01:22.184Z,99645.16
2023-07-01T06:02:25.234Z,99648.72
2023-07-01T06:03:28.279Z,99642.84
2023-07-01T06:04:31.281Z,99637.72
2023-07-01T06:05:34.294Z,99642.94
2023-07-01T06:06:37.337Z,99633.75
2023-07-01T06:07:40.320Z,99638.59
2023-07-01T06:08:43.769Z,99641.91
2023-07-01T06:09:50.611Z,99642.44
2023-07-01T06:10:53.780Z,99637.84
2023-07-01T06:11:56.775Z,99649.31
2023-07-01T06:12:59.771Z,99638.22
2023-07-01T06:14:02.874Z,99631.69
2023-07-01T06:15:06.651Z,99637.59
2023-07-01T06:16:09.656Z,99643.19
2023-07-01T06:17:12.982Z,99649.53
2023-07-01T06:18:16.106Z,99648.69
2023-07-01T06:19:19.119Z,99639.59
2023-07-01T06:20:22.112Z,99648.44
2023-07-01T06:21:25.866Z,99640.94
2023-07-01T06:22:28.867Z,99644.28
2023-07-01T06:23:32.160Z,99643.25
2023-07-01T06:24:35.149Z,99641.84
2023-07-01T06:25:38.365Z,99632.81
2023-07-01T06:26:41.363Z,99640.13
2023-07-01T06:27:44.348Z,99642.44
2023-07-01T06:28:47.340Z,99646.69
2023-07-01T06:29:50.312Z,99638.47
2023-07-01T06:30:53.310Z,99638.53
2023-07-01T06:31:56.329Z,99644.84
2023-07-01T06:32:59.492Z,99650.00
2023-07-01T06:34:05.229Z,99641.19
2023-07-01T06:35:08.905Z,99644.78
2023-07-01T06:36:12.073Z,99641.84
2023-07-01T06:37:15.048Z,99639.06
2023-07-01T06:38:18.067Z,99642.09
2023-07-01T06:39:21.050Z,99636.47
2023-07-01T06:40:24.026Z,99644.19
2023-07-01T06:41:27.070Z,99640.91
2023-07-01T06:42:30.400Z,99643.00
2023-07-01T06:43:33.810Z,99633.19
2023-07-01T06:44:36.856Z,99644.00
2023-07-01T06:45:40.183Z,99636.97
2023-07-01T06:46:43.167Z,99643.66
2023-07-01T06:47:46.190Z,99644.38
2023-07-01T06:48:49.217Z,99642.13
2023-07-01T06:49:52.640Z,99638.41
2023-07-01T06:50:55.630Z,99645.16
2023-07-01T06:51:58.707Z,99647.19
2023-07-01T06:53:02.920Z,99641.94
2023-07-01T06:54:05.980Z,99642.88
2023-07-01T06:55:09.667Z,99634.53
2023-07-01T06:56:12.719Z,99630.88
2023-07-01T06:57:15.711Z,99636.31
2023-07-01T06:58:18.689Z,99634.50
2023-07-01T06:59:21.689Z,99633.09
2023-07-01T07:00:24.890Z,99633.88
2023-07-01T07:01:27.923Z,99631.06
2023-07-01T07:02:31.049Z,99639.75
2023-07-01T07:03:35.073Z,99629.66
2023-07-01T07:04:38.693Z,99640.16
2023-07-01T07:05:41.780Z,99637.72
2023-07-01T07:06:44.758Z,99633.97
2023-07-01T07:07:48.051Z,99634.59
2023-07-01T07:08:51.284Z,99634.19
2023-07-01T07:09:54.394Z,99635.50
2023-07-01T07:10:57.361Z,99626.03
2023-07-01T07:12:00.335Z,99625.84
2023-07-01T07:13:04.694Z,99620.16
2023-07-01T07:14:07.682Z,99623.78
2023-07-01T07:15:10.830Z,99625.91
2023-07-01T07:16:13.826Z,99624.03
2023-07-01T07:17:16.849Z,99626.59
2023-07-01T07:18:19.928Z,99627.13
2023-07-01T07:19:22.980Z,99622.69
2023-07-01T07:20:25.985Z,99624.97
2023-07-01T07:21:28.963Z,99616.00
2023-07-01T07:22:31.947Z,99609.06
2023-07-01T07:23:34.939Z,99612.97
2023-07-01T07:24:38.008Z,99615.13
2023-07-01T07:25:41.004Z,99619.41
2023-07-01T07:26:43.990Z,99613.13
2023-07-01T07:27:47.680Z,99613.50
2023-07-01T07:28:50.654Z,99612.50
2023-07-01T07:29:53.652Z,99609.78
2023-07-01T07:30:56.667Z,99606.81
2023-07-01T07:31:59.657Z,99602.31
2023-07-01T07:33:02.707Z,99613.16
2023-07-01T07:34:05.776Z,99602.75
2023-07-01T07:35:09.158Z,99608.84
2023-07-01T07:36:12.145Z,99608.59
2023-07-01T07:37:15.156Z,99611.44
2023-07-01T07:38:18.338Z,99600.38
2023-07-01T07:39:21.627Z,99591.50
2023-07-01T07:40:24.605Z,99593.59
2023-07-01T07:41:27.619Z,99592.97
2023-07-01T07:42:30.614Z,99596.16
2023-07-01T07:43:33.593Z,99598.59
2023-07-01T07:44:36.675Z,99593.91
2023-07-01T07:45:39.994Z,99598.44
2023-07-01T07:46:43.790Z,99593.25
2023-07-01T07:47:46.874Z,99593.75
2023-07-01T07:48:55.241Z,99590.69
2023-07-01T07:49:58.207Z,99590.88
2023-07-01T07:51:01.713Z,99591.06
2023-07-01T07:52:05.508Z,99590.69
2023-07-01T07:53:08.533Z,99597.22
2023-07-01T07:54:12.035Z,99592.59
2023-07-01T07:55:15.018Z,99597.84
2023-07-01T07:56:18.091Z,99593.59
2023-07-01T07:57:21.181Z,99589.88
2023-07-01T07:58:25.361Z,99585.13
2023-07-01T07:59:30.246Z,99589.19
2023-07-01T08:00:34.292Z,99581.38
2023-07-01T08:01:37.407Z,99587.53
2023-07-01T08:02:45.576Z,99583.78
2023-07-01T08:03:49.170Z,99588.16
2023-07-01T08:04:52.449Z,99586.69
2023-07-01T08:05:55.558Z,99584.31
2023-07-01T08:06:58.595Z,99575.06
2023-07-01T08:08:01.584Z,99577.75
2023-07-01T08:09:04.547Z,99575.84
2023-07-01T08:10:08.135Z,99575.06
2023-07-01T08:11:11.122Z,99573.84
2023-07-01T08:12:14.125Z,99571.50
2023-07-01T08:13:17.199Z,99577.03
2023-07-01T08:14:22.993Z,99571.22
2023-07-01T08:15:25.990Z,99572.75
2023-07-01T08:16:28.988Z,99566.91
2023-07-01T08:17:32.034Z,99569.19
2023-07-01T08:18:35.168Z,99570.34
2023-07-01T08:19:38.162Z,99567.47
2023-07-01T08:20:41.156Z,99563.06
2023-07-01T08:21:44.131Z,99567.53
2023-07-01T08:22:47.119Z,99570.38
2023-07-01T08:23:50.315Z,99570.25
2023-07-01T08:24:53.341Z,99568.09
2023-07-01T08:25:56.314Z,99569.78
2023-07-01T08:27:00.822Z,99568.41
2023-07-01T08:28:03.971Z,99563.06
2023-07-01T08:29:09.426Z,99566.50
2023-07-01T08:30:13.558Z,99569.69
2023-07-01T08:31:16.670Z,99564.22
2023-07-01T08:32:19.762Z,99569.47
2023-07-01T08:33:22.824Z,99560.78
2023-07-01T08:34:25.803Z,99565.94
2023-07-01T08:35:30.328Z,99560.16
2023-07-01T08:36:33.308Z,99554.88
2023-07-01T08:37:36.436Z,99557.84
2023-07-01T08:38:39.437Z,99556.44
2023-07-01T08:39:42.427Z,99555.78
2023-07-01T08:40:51.372Z,99552.59
2023-07-01T08:42:00.869Z,99552.25
2023-07-01T08:43:06.760Z,99550.63
2023-07-01T08:44:10.928Z,99552.94
2023-07-01T08:45:14.525Z,99550.81
2023-07-01T08:46:19.553Z,99550.94
2023-07-01T08:47:23.352Z,99557.00
2023-07-01T08:48:28.044Z,99551.25
2023-07-01T08:49:31.693Z,99547.59
2023-07-01T08:51:20.934Z,99543.22
2023-07-01T08:52:29.656Z,99542.75
2023-07-01T08:53:34.217Z,99545.66
2023-07-01T08:54:38.074Z,99539.75
2023-07-01T08:55:41.416Z,99541.56
2023-07-01T08:56:48.607Z,99540.81
2023-07-01T08:57:51.699Z,99542.03
2023-07-01T08:58:54.884Z,99547.47
2023-07-01T08:59:58.257Z,99547.75
2023-07-01T09:01:01.289Z,99544.56
2023-07-01T09:02:04.562Z,99547.56
2023-07-01T09:03:08.243Z,99542.63
2023-07-01T09:04:11.785Z,99544.03
2023-07-01T09:05:14.809Z,99545.69
2023-07-01T09:06:17.858Z,99544.59
2023-07-01T09:07:20.825Z,99544.94
2023-07-01T09:08:23.790Z,99548.72
2023-07-01T09:09:26.898Z,99546.28
2023-07-01T09:10:30.114Z,99544.75
2023-07-01T09:11:33.141Z,99549.28
2023-07-01T09:12:36.135Z,99542.56
2023-07-01T09:13:39.123Z,99539.66
2023-07-01T09:17:51.177Z,99542.75
2023-07-01T09:19:05.165Z,99535.94
2023-07-01T09:20:11.752Z,99542.31
2023-07-01T09:21:20.790Z,99535.44
2023-07-01T09:22:24.372Z,99538.19
2023-07-01T09:23:28.172Z,99536.25
2023-07-01T09:24:39.777Z,99534.25
2023-07-01T09:25:42.948Z,99539.03
2023-07-01T09:26:54.075Z,99537.56
2023-07-01T09:27:57.071Z,99535.66
2023-07-01T09:29:09.068Z,99534.84
2023-07-01T09:30:28.206Z,99531.31
2023-07-01T09:31:52.313Z,99529.91
2023-07-01T09:33:17.227Z,99536.97
2023-07-01T09:34:20.379Z,99531.84
2023-07-01T09:35:23.832Z,99529.25
2023-07-01T09:36:28.273Z,99527.00
2023-07-01T09:37:32.280Z,99523.13
2023-07-01T09:38:52.648Z,99527.47
2023-07-01T09:39:55.707Z,99533.13
2023-07-01T09:41:15.512Z,99523.47
2023-07-01T09:42:19.924Z,99523.78
2023-07-01T09:43:34.793Z,99520.72
2023-07-01T09:44:39.048Z,99521.88
2023-07-01T09:45:55.747Z,99522.53
2023-07-01T09:46:58.838Z,99518.66
2023-07-01T09:48:12.805Z,99519.59
2023-07-01T09:49:15.872Z,99507.56
2023-07-01T09:50:27.544Z,99518.00
2023-07-01T09:51:30.522Z,99511.41
2023-07-01T09:52:35.594Z,99516.06
2023-07-01T09:53:39.781Z,99520.91
2023-07-01T09:54:43.629Z,99506.75
2023-07-01T09:55:48.163Z,99511.09
2023-07-01T09:56:52.768Z,99512.41
2023-07-01T09:57:56.338Z,99508.22
2023-07-01T09:58:59.341Z,99511.09
2023-07-01T10:00:02.657Z,99503.41
2023-07-01T10:01:06.531Z,99502.06
2023-07-01T10:02:12.387Z,99509.03
2023-07-01T10:03:16.946Z,99503.69
2023-07-01T10:04:23.021Z,99503.38
2023-07-01T10:05:26.223Z,99501.75
2023-07-01T10:06:29.178Z,99501.75
2023-07-01T10:07:32.792Z,99498.03
2023-07-01T10:08:35.779Z,99497.75
2023-07-01T10:09:48.239Z,99496.78
2023-07-01T10:11:07.910Z,99494.81
2023-07-01T10:12:11.993Z,99497.72
2023-07-01T10:13:14.986Z,99494.66
2023-07-01T10:14:18.332Z,99490.00
2023-07-01T10:15:32.502Z,99492.28
2023-07-01T10:16:48.212Z,99489.03
2023-07-01T10:17:54.272Z,99495.16
2023-07-01T10:18:57.548Z,99485.38
2023-07-01T10:20:34.253Z,99486.31
2023-07-01T10:21:37.336Z,99487.47
2023-07-01T10:22:56.224Z,99494.22
2023-07-01T10:24:01.469Z,99492.56
2023-07-01T10:25:07.257Z,99481.34
2023-07-01T10:26:37.255Z,99488.84
2023-07-01T10:27:43.407Z,99485.47
2023-07-01T10:28:46.455Z,99495.28
2023-07-01T10:29:57.116Z,99479.47
2023-07-01T10:31:02.911Z,99490.56
2023-07-01T10:32:14.397Z,99475.09
2023-07-01T10:33:29.465Z,99483.31
2023-07-01T10:34:54.196Z,99476.84
2023-07-01T10:36:09.752Z,99475.25
2023-07-01T10:37:16.439Z,99474.91
2023-07-01T10:38:27.008Z,99467.56
2023-07-01T10:39:34.996Z,99470.72
2023-07-01T10:40:44.729Z,99466.00
2023-07-01T10:41:53.004Z,99472.13
2023-07-01T10:43:31.408Z,99467.19
2023-07-01T10:44:34.389Z,99475.97
2023-07-01T10:45:40.816Z,99474.69
2023-07-01T10:46:43.814Z,99475.97
2023-07-01T10:47:47.019Z,99471.16
2023-07-01T10:49:08.239Z,99475.25
2023-07-01T10:50:16.221Z,99475.88
2023-07-01T10:51:19.239Z,99471.94
2023-07-01T10:52:23.083Z,99479.06
2023-07-01T10:53:28.235Z,99467.84
2023-07-01T10:54:41.034Z,99472.13
2023-07-01T10:55:48.778Z,99470.50
2023-07-01T10:57:17.364Z,99470.84
2023-07-01T10:58:30.069Z,99475.53
2023-07-01T10:59:33.061Z,99473.59
2023-07-01T11:00:37.115Z,99466.03
2023-07-01T11:01:45.095Z,99469.75
2023-07-01T11:02:48.238Z,99473.13
2023-07-01T11:03:51.398Z,99473.16
2023-07-01T11:04:58.057Z,99467.81
2023-07-01T11:06:08.971Z,99475.56
2023-07-01T11:07:12.366Z,99470.25
2023-07-01T11:08:15.374Z,99469.13
2023-07-01T11:09:29.265Z,99470.56
2023-07-01T11:10:32.418Z,99462.84
2023-07-01T11:11:35.419Z,99472.97
2023-07-01T11:12:39.412Z,99471.50
2023-07-01T11:13:42.405Z,99467.69
2023-07-01T11:14:45.726Z,99467.31
2023-07-01T11:16:10.467Z,99469.56
2023-07-01T11:17:20.563Z,99477.28
2023-07-01T11:18:23.606Z,99472.78
2023-07-01T11:19:26.585Z,99471.00
2023-07-01T11:20:49.747Z,99463.38
2023-07-01T11:21:53.598Z,99456.59
2023-07-01T11:22:56.633Z,99461.94
2023-07-01T11:24:04.766Z,99471.47
2023-07-01T11:25:08.133Z,99472.94
2023-07-01T11:26:11.459Z,99456.00
2023-07-01T11:27:14.458Z,99461.59
2023-07-01T11:28:33.545Z,99459.38
2023-07-01T11:29:39.410Z,99452.91
2023-07-01T11:30:42.621Z,99459.63
2023-07-01T11:31:46.586Z,99455.03
2023-07-01T11:32:49.666Z,99472.75
2023-07-01T11:33:57.219Z,99464.63
2023-07-01T11:35:00.382Z,99462.81
2023-07-01T11:36:03.382Z,99459.44
2023-07-01T11:37:07.255Z,99452.22
2023-07-01T11:38:28.723Z,99457.22
2023-07-01T11:39:31.737Z,99459.00
2023-07-01T11:40:41.526Z,99447.09
2023-07-01T11:41:50.970Z,99454.19
2023-07-01T11:42:55.085Z,99457.72
2023-07-01T11:43:58.056Z,99450.19
2023-07-01T11:45:06.306Z,99451.13
2023-07-01T11:46:11.125Z,99446.16
2023-07-01T11:47:16.373Z,99449.50
2023-07-01T11:48:34.077Z,99458.97
2023-07-01T11:49:37.082Z,99451.25
2023-07-01T11:50:53.119Z,99444.19
2023-07-01T11:52:05.677Z,99441.31
2023-07-01T11:53:08.665Z,99445.16
2023-07-01T11:54:14.509Z,99449.84
2023-07-01T11:55:35.387Z,99447.59
2023-07-01T11:56:38.374Z,99450.78
2023-07-01T11:57:41.367Z,99451.47
2023-07-01T12:00:01.892Z,99446.31
2023-07-01T12:01:23.146Z,99437.47
2023-07-01T12:02:31.440Z,99445.97
2023-07-01T12:03:36.176Z,99443.41
2023-07-01T12:04:39.760Z,99436.66
2023-07-01T12:05:46.843Z,99432.97
2023-07-01T12:06:50.310Z,99435.84
2023-07-01T12:07:58.207Z,99436.97
2023-07-01T12:09:08.607Z,99434.56
2023-07-01T12:10:21.901Z,99442.59
2023-07-01T12:11:26.398Z,99440.50
2023-07-01T12:12:35.100Z,99424.09
2023-07-01T12:13:38.084Z,99436.00
2023-07-01T12:14:41.208Z,99426.44
2023-07-01T12:15:54.563Z,99431.59
2023-07-01T12:16:58.030Z,99427.75
2023-07-01T12:18:23.561Z,99425.06
2023-07-01T12:19:26.754Z,99421.78
2023-07-01T12:20:29.723Z,99418.66
2023-07-01T12:21:32.695Z,99418.91
2023-07-01T12:22:36.849Z,99418.50
2023-07-01T12:23:44.869Z,99418.47
2023-07-01T12:25:02.935Z,99418.31
2023-07-01T12:26:06.538Z,99414.94
2023-07-01T12:27:09.501Z,99414.50
2023-07-01T12:28:12.515Z,99412.25
2023-07-01T12:29:16.581Z,99423.31
2023-07-01T12:30:19.627Z,99413.16
2023-07-01T12:31:22.817Z,99413.53
2023-07-01T12:32:27.115Z,99413.50
2023-07-01T12:33:30.336Z,99407.88
2023-07-01T12:34:33.315Z,99404.97
2023-07-01T12:35:36.377Z,99413.47
2023-07-01T12:36:39.661Z,99405.16
2023-07-01T12:37:43.480Z,99403.88
2023-07-01T12:38:46.545Z,99398.38
2023-07-01T12:39:54.672Z,99410.91
2023-07-01T12:40:58.735Z,99404.78
2023-07-01T12:42:02.102Z,99404.78
2023-07-01T12:43:07.796Z,99397.88
2023-07-01T12:44:11.063Z,99402.22
2023-07-01T12:45:14.055Z,99388.13
2023-07-01T12:46:17.092Z,99396.81
2023-07-01T12:47:22.969Z,99391.81
2023-07-01T12:48:26.015Z,99387.75